KJLN

Joplin Regional Airport

Airport
ICAO code
KJLN
IATA Code
JLN
Summary
ICAO Region
NAM
ICAO Territory
Location

Joplin, Missouri

Serving
Joplin
Elevation
981 ft
Coordinates
37° 8' 55" N , 94° 29' 57" W
KCC
Metar
KJLN 181653Z 19015G24KT 9SM BKN017 BKN025 OVC030 23/19 A2989 RMK AO2 RAE01 SLP113 P0000 T02330189

Joplin Regional Airport is a public use airport located 4 nm north of the central business district of Joplin, in Jasper County, Missouri, USA.

Airport map

Aerial View

SKYbrary Partners:

Safety knowledge contributed by: